Time;durP1;ratioP1;P1;durP2;ratioP2;P2;SDS_P1;SDS_P2;PMS_P1;PMS_P2;Temp;Humidity;BMP_temperature;BMP_pressure;BME280_temperature;BME280_humidity;BME280_pressure;Samples;Min_cycle;Max_cycle;Signal;HPM_P1;HPM_P2
2022/04/06 00:00:44;;;;;;;39.97;13.70;;;2.70;99.90;;;;;;5290469;28;20031;-72
2022/04/06 00:03:22;;;;;;;40.08;14.02;;;2.70;99.90;;;;;;5290740;28;20024;-72
2022/04/06 00:06:00;;;;;;;37.42;13.85;;;2.70;99.90;;;;;;5291026;28;20413;-72
2022/04/06 00:08:38;;;;;;;72.07;18.77;;;2.70;99.90;;;;;;5291183;28;20415;-72
2022/04/06 00:11:13;;;;;;;145.55;18.92;;;2.50;99.90;;;;;;5290853;28;20451;-72
2022/04/06 00:13:48;;;;;;;23.92;12.23;;;2.20;99.90;;;;;;5290622;28;20114;-72
2022/04/06 00:16:19;;;;;;;22.90;12.15;;;2.70;99.90;;;;;;5248481;28;20040;-78
2022/04/06 00:18:51;;;;;;;32.33;14.18;;;2.70;99.90;;;;;;5248414;28;20467;-77
2022/04/06 00:21:25;;;;;;;27.02;14.05;;;2.70;99.90;;;;;;5248010;28;20020;-77
2022/04/06 00:23:56;;;;;;;39.70;17.40;;;2.50;99.90;;;;;;5248138;28;20029;-71
2022/04/06 00:26:27;;;;;;;28.23;12.88;;;2.40;99.90;;;;;;5248022;28;20068;-71
2022/04/06 00:28:58;;;;;;;33.38;16.20;;;2.20;99.90;;;;;;5248192;28;20082;-78
2022/04/06 00:31:30;;;;;;;24.77;12.88;;;2.30;99.90;;;;;;5248162;28;20017;-78
2022/04/06 00:34:02;;;;;;;24.80;13.40;;;2.20;99.90;;;;;;5249543;28;20024;-78
2022/04/06 00:36:33;;;;;;;23.20;13.15;;;2.10;99.90;;;;;;5252363;28;20356;-78
2022/04/06 00:39:04;;;;;;;22.85;11.88;;;2.30;99.90;;;;;;5252304;28;20023;-78
2022/04/06 00:41:35;;;;;;;28.02;14.80;;;2.40;99.90;;;;;;5252225;28;20023;-77
2022/04/06 00:44:12;;;;;;;23.63;10.32;;;2.20;99.90;;;;;;5252151;28;20032;-77
2022/04/06 00:46:44;;;;;;;25.88;9.68;;;1.90;99.90;;;;;;5252048;28;20068;-75
2022/04/06 00:49:15;;;;;;;13.43;7.05;;;1.60;99.90;;;;;;5252073;28;20050;-76
2022/04/06 00:51:48;;;;;;;10.82;6.45;;;1.60;99.90;;;;;;5252166;28;20040;-73
2022/04/06 00:54:21;;;;;;;10.68;6.72;;;1.90;99.90;;;;;;5252017;28;20095;-76
2022/04/06 00:56:52;;;;;;;13.60;6.30;;;2.10;99.90;;;;;;5251900;28;20025;-75
2022/04/06 00:59:26;;;;;;;15.60;8.65;;;1.90;99.90;;;;;;5251875;28;20456;-75
2022/04/06 01:01:59;;;;;;;18.52;8.30;;;1.50;99.90;;;;;;5251899;28;20024;-75
2022/04/06 01:04:29;;;;;;;12.82;7.15;;;1.90;99.90;;;;;;5251699;28;20024;-75
2022/04/06 01:07:00;;;;;;;11.95;6.35;;;1.90;99.90;;;;;;5251735;28;20036;-75
2022/04/06 01:09:31;;;;;;;13.10;6.40;;;1.60;99.90;;;;;;5251677;28;20527;-75
2022/04/06 01:12:03;;;;;;;21.42;11.95;;;1.40;99.90;;;;;;5251517;28;20024;-77
2022/04/06 01:14:34;;;;;;;23.60;12.18;;;1.70;99.90;;;;;;5264421;28;20506;-77
2022/04/06 01:17:08;;;;;;;23.65;13.07;;;1.70;99.90;;;;;;5293670;28;20341;-75
2022/04/06 01:19:41;;;;;;;22.80;12.63;;;1.80;99.90;;;;;;5293693;28;20055;-77
2022/04/06 01:22:17;;;;;;;18.23;10.35;;;1.90;99.90;;;;;;5293609;28;20099;-77
2022/04/06 01:24:48;;;;;;;13.57;9.07;;;1.80;99.90;;;;;;5293384;28;20079;-76
2022/04/06 01:27:19;;;;;;;9.00;5.40;;;1.80;99.90;;;;;;5293350;28;20422;-72
2022/04/06 01:29:52;;;;;;;13.88;6.53;;;1.60;99.90;;;;;;5293453;28;20359;-77
2022/04/06 01:32:26;;;;;;;13.52;6.38;;;1.50;99.90;;;;;;5293279;28;20042;-77
2022/04/06 01:34:57;;;;;;;12.98;6.40;;;1.50;99.90;;;;;;5293469;28;20054;-77
2022/04/06 01:37:28;;;;;;;10.75;6.22;;;1.50;99.90;;;;;;5293422;28;20028;-77
2022/04/06 01:39:59;;;;;;;9.90;5.20;;;1.50;99.90;;;;;;5293087;28;20107;-75
2022/04/06 01:42:30;;;;;;;13.18;7.30;;;1.60;99.90;;;;;;5293054;28;20165;-72
2022/04/06 01:45:01;;;;;;;15.18;9.68;;;1.70;99.90;;;;;;5292062;28;20352;-73
2022/04/06 01:47:32;;;;;;;20.52;12.90;;;1.60;99.90;;;;;;5292650;28;20086;-76
2022/04/06 01:52:53;;;;;;;12.90;6.63;;;1.10;99.90;;;;;;5293119;28;20092;-77
2022/04/06 01:55:24;;;;;;;12.27;7.05;;;1.30;99.90;;;;;;5292842;28;20802;-76
2022/04/06 01:57:56;;;;;;;11.30;7.10;;;1.40;99.90;;;;;;5292757;28;20020;-75
2022/04/06 02:00:27;;;;;;;11.88;6.03;;;1.60;99.90;;;;;;5292712;28;20022;-76
2022/04/06 02:02:57;;;;;;;16.10;9.73;;;1.70;99.90;;;;;;5292681;28;20031;-75
2022/04/06 02:05:32;;;;;;;13.82;7.13;;;1.40;99.90;;;;;;5292550;28;20371;-76
2022/04/06 02:08:03;;;;;;;9.52;5.72;;;1.10;99.90;;;;;;5292550;28;20034;-76
2022/04/06 02:10:34;;;;;;;11.73;6.47;;;1.20;99.90;;;;;;5292746;28;20030;-77
2022/04/06 02:13:05;;;;;;;8.95;6.03;;;1.10;99.90;;;;;;5292379;28;20102;-76
2022/04/06 02:15:37;;;;;;;13.70;7.35;;;1.50;99.90;;;;;;5292177;28;20429;-76
2022/04/06 02:18:08;;;;;;;11.25;6.20;;;1.50;99.90;;;;;;5292478;28;20102;-77
2022/04/06 02:20:39;;;;;;;10.90;6.00;;;1.00;99.90;;;;;;5292322;28;20013;-76
2022/04/06 02:23:10;;;;;;;9.63;6.32;;;1.10;99.90;;;;;;5292250;28;20382;-76
2022/04/06 02:25:41;;;;;;;9.40;6.32;;;1.20;99.90;;;;;;5292236;28;20322;-77
2022/04/06 02:28:12;;;;;;;11.07;6.20;;;1.30;99.90;;;;;;5292062;28;20031;-76
2022/04/06 02:30:42;;;;;;;13.93;7.97;;;1.10;99.90;;;;;;5292200;28;20069;-73
2022/04/06 02:33:13;;;;;;;11.60;7.22;;;1.00;99.90;;;;;;5292004;28;20111;-76
2022/04/06 02:35:44;;;;;;;16.02;7.18;;;1.30;99.90;;;;;;5291920;28;20028;-76
2022/04/06 02:38:15;;;;;;;14.60;7.28;;;1.10;99.90;;;;;;5291626;28;20053;-70
2022/04/06 02:40:46;;;;;;;13.93;7.95;;;0.80;99.90;;;;;;5291647;28;20391;-76
2022/04/06 02:43:17;;;;;;;18.52;8.10;;;0.90;99.90;;;;;;5273547;28;20020;-76
2022/04/06 02:45:48;;;;;;;12.90;7.25;;;1.20;99.90;;;;;;5291807;28;20028;-76
2022/04/06 02:48:19;;;;;;;17.02;8.68;;;1.30;99.90;;;;;;5273522;28;20430;-76
2022/04/06 02:50:50;;;;;;;15.35;8.60;;;0.90;99.90;;;;;;5273428;28;20008;-76
2022/04/06 02:53:21;;;;;;;14.52;8.20;;;1.00;99.90;;;;;;5291768;28;20455;-76
2022/04/06 02:55:52;;;;;;;15.70;8.50;;;1.10;99.90;;;;;;5291566;28;20038;-75
2022/04/06 02:58:23;;;;;;;15.50;9.23;;;1.20;99.90;;;;;;5291314;28;20447;-76
2022/04/06 03:00:54;;;;;;;23.92;11.82;;;1.10;99.90;;;;;;5291455;28;20048;-76
2022/04/06 03:03:26;;;;;;;14.20;9.25;;;0.80;99.90;;;;;;5291641;28;20031;-72
2022/04/06 03:05:56;;;;;;;20.55;10.25;;;0.90;99.90;;;;;;5291311;28;20059;-76
2022/04/06 03:08:29;;;;;;;14.98;8.95;;;1.00;99.90;;;;;;5291430;28;20078;-77
2022/04/06 03:11:00;;;;;;;19.60;8.68;;;0.90;99.90;;;;;;5291252;28;20026;-76
2022/04/06 03:13:31;;;;;;;18.10;8.70;;;1.00;99.90;;;;;;5291256;28;20103;-76
2022/04/06 03:16:02;;;;;;;18.45;9.77;;;1.10;99.90;;;;;;5291090;28;20138;-76
2022/04/06 03:18:33;;;;;;;23.20;11.32;;;0.90;99.90;;;;;;5291169;28;20107;-76
2022/04/06 03:21:04;;;;;;;21.73;10.40;;;0.90;99.90;;;;;;5291050;28;20493;-76
2022/04/06 03:23:34;;;;;;;15.15;9.02;;;0.90;99.90;;;;;;5291105;28;20030;-76
2022/04/06 03:26:05;;;;;;;17.52;9.43;;;1.10;99.90;;;;;;5290944;28;20059;-76
2022/04/06 03:28:38;;;;;;;17.80;9.80;;;1.20;99.90;;;;;;5291148;28;20035;-76
2022/04/06 03:31:09;;;;;;;23.85;11.20;;;1.10;99.90;;;;;;5290895;28;20042;-76
2022/04/06 03:33:39;;;;;;;21.85;11.48;;;0.80;99.90;;;;;;5290981;28;20107;-76
2022/04/06 03:36:10;;;;;;;18.70;10.57;;;0.70;99.90;;;;;;5291034;28;20024;-75
2022/04/06 03:38:41;;;;;;;18.27;10.38;;;0.60;99.90;;;;;;5290914;28;20031;-75
2022/04/06 03:41:12;;;;;;;21.00;10.60;;;0.90;99.90;;;;;;5290753;28;20037;-76
2022/04/06 03:43:43;;;;;;;20.42;9.55;;;1.00;99.90;;;;;;5290628;28;20024;-75
2022/04/06 03:46:14;;;;;;;20.80;10.52;;;1.00;99.90;;;;;;5290526;28;20088;-76
2022/04/06 03:48:45;;;;;;;15.38;8.90;;;0.90;99.90;;;;;;5290694;28;20019;-75
2022/04/06 03:51:16;;;;;;;19.77;9.20;;;1.00;99.90;;;;;;5290586;28;20031;-75
2022/04/06 03:53:47;;;;;;;21.08;10.95;;;1.10;99.90;;;;;;5290764;28;20027;-76
2022/04/06 03:56:18;;;;;;;20.63;10.90;;;0.90;99.90;;;;;;5290568;28;20521;-76
2022/04/06 03:58:49;;;;;;;21.77;10.00;;;1.00;99.90;;;;;;5290525;28;20020;-73
2022/04/06 04:01:20;;;;;;;16.27;9.57;;;1.20;99.90;;;;;;5290450;28;20024;-70
2022/04/06 04:03:51;;;;;;;16.38;9.32;;;1.00;99.90;;;;;;5290378;28;20019;-73
2022/04/06 04:06:22;;;;;;;21.00;10.98;;;1.00;99.90;;;;;;5289998;28;20378;-76
2022/04/06 04:08:52;;;;;;;23.25;10.90;;;1.10;99.90;;;;;;5289695;28;20467;-76
2022/04/06 04:11:23;;;;;;;20.38;10.85;;;1.00;99.90;;;;;;5289964;28;20106;-77
2022/04/06 04:13:54;;;;;;;19.30;10.50;;;1.00;99.90;;;;;;5289875;28;20051;-71
2022/04/06 04:16:25;;;;;;;18.83;10.70;;;1.10;99.90;;;;;;5290349;28;20062;-76
2022/04/06 04:18:56;;;;;;;18.52;10.15;;;0.90;99.90;;;;;;5290209;28;20475;-77
2022/04/06 04:21:33;;;;;;;17.58;9.70;;;1.10;99.90;;;;;;5290020;28;20030;-77
2022/04/06 04:24:08;;;;;;;18.48;10.70;;;1.10;99.90;;;;;;5290066;28;20061;-76
2022/04/06 04:26:39;;;;;;;20.48;10.57;;;1.20;99.90;;;;;;5289619;28;20055;-77
2022/04/06 04:29:10;;;;;;;17.10;9.63;;;1.40;99.90;;;;;;5290033;28;20084;-76
2022/04/06 04:31:41;;;;;;;19.05;10.05;;;1.60;99.90;;;;;;5290043;28;20390;-71
2022/04/06 04:34:11;;;;;;;21.48;11.13;;;1.70;99.90;;;;;;5290136;28;20077;-77
2022/04/06 04:36:42;;;;;;;19.50;9.90;;;1.50;99.90;;;;;;5289974;28;20011;-77
2022/04/06 04:39:13;;;;;;;16.35;10.35;;;1.80;99.90;;;;;;5290178;28;20016;-76
2022/04/06 04:41:44;;;;;;;18.83;10.27;;;2.00;99.90;;;;;;5289849;28;20027;-77
2022/04/06 04:44:15;;;;;;;16.90;9.18;;;2.20;99.90;;;;;;5289748;28;20027;-77
2022/04/06 04:46:46;;;;;;;19.30;9.80;;;2.00;99.90;;;;;;5289766;28;20043;-77
2022/04/06 04:49:17;;;;;;;17.85;9.30;;;2.10;99.90;;;;;;5290061;28;20022;-74
2022/04/06 04:51:47;;;;;;;17.55;9.23;;;2.20;99.90;;;;;;5289926;28;20015;-70
2022/04/06 04:54:23;;;;;;;15.38;9.07;;;2.40;99.90;;;;;;5289784;28;20024;-75
2022/04/06 04:56:54;;;;;;;15.70;8.85;;;2.20;99.90;;;;;;5289946;28;20043;-72
2022/04/06 04:59:25;;;;;;;16.02;9.18;;;2.60;99.90;;;;;;5289805;28;20112;-76
2022/04/06 05:01:56;;;;;;;18.05;9.98;;;2.80;99.90;;;;;;5269123;28;20107;-71
2022/04/06 05:04:27;;;;;;;14.63;8.75;;;2.70;99.90;;;;;;5289821;28;20019;-76
2022/04/06 05:06:58;;;;;;;22.52;10.20;;;2.80;99.90;;;;;;5285001;28;20032;-77
2022/04/06 05:09:28;;;;;;;18.48;11.00;;;3.10;99.90;;;;;;5261926;28;20024;-72
2022/04/06 05:11:59;;;;;;;17.73;10.45;;;3.40;99.90;;;;;;5277544;28;20437;-71
2022/04/06 05:14:31;;;;;;;19.13;10.07;;;3.50;99.90;;;;;;5288991;28;20376;-77
2022/04/06 05:17:01;;;;;;;19.98;11.60;;;3.70;99.90;;;;;;5271511;28;20059;-77
2022/04/06 05:19:32;;;;;;;18.65;11.90;;;4.10;99.90;;;;;;5290142;28;20043;-74
2022/04/06 05:22:04;;;;;;;19.90;10.63;;;4.00;99.90;;;;;;5275334;28;20083;-79
2022/04/06 05:24:35;;;;;;;16.27;10.68;;;4.20;99.90;;;;;;5293539;28;20023;-71
2022/04/06 05:27:05;;;;;;;17.85;10.52;;;5.20;99.90;;;;;;5293350;28;20032;-78
2022/04/06 05:29:36;;;;;;;17.17;10.23;;;5.30;99.90;;;;;;5285825;28;20065;-72
2022/04/06 05:32:08;;;;;;;20.90;10.95;;;5.50;99.90;;;;;;5286997;28;20433;-73
2022/04/06 05:34:38;;;;;;;16.75;9.65;;;5.00;99.90;;;;;;5287271;27;20019;-73
2022/04/06 05:37:09;;;;;;;16.85;10.43;;;5.80;99.90;;;;;;5286959;28;20030;-74
2022/04/06 05:39:40;;;;;;;17.15;10.95;;;5.90;99.90;;;;;;5286380;28;20020;-77
2022/04/06 05:42:11;;;;;;;18.17;11.25;;;5.90;99.90;;;;;;5286388;28;20047;-77
2022/04/06 05:44:42;;;;;;;16.35;10.18;;;5.80;99.90;;;;;;5286747;27;20019;-78
2022/04/06 05:47:13;;;;;;;14.85;9.85;;;6.20;99.90;;;;;;5285590;28;20036;-75
2022/04/06 05:49:44;;;;;;;18.83;9.98;;;6.70;99.90;;;;;;5286482;28;20028;-77
2022/04/06 05:52:15;;;;;;;17.23;9.93;;;6.80;99.90;;;;;;5285511;28;20464;-76
2022/04/06 05:54:46;;;;;;;15.93;9.65;;;7.00;99.90;;;;;;5286542;28;20050;-76
2022/04/06 05:57:18;;;;;;;14.65;10.02;;;7.30;99.90;;;;;;5270642;28;20445;-72
2022/04/06 05:59:49;;;;;;;16.98;10.07;;;7.70;99.90;;;;;;5286323;28;20043;-79
2022/04/06 06:02:23;;;;;;;21.13;11.95;;;7.90;99.90;;;;;;5286217;28;20169;-77
2022/04/06 06:04:56;;;;;;;22.73;13.07;;;8.20;99.90;;;;;;5285891;28;20394;-78
2022/04/06 06:07:26;;;;;;;17.05;10.82;;;8.50;99.90;;;;;;5285661;28;20767;-79
2022/04/06 06:09:57;;;;;;;20.02;13.05;;;8.60;99.90;;;;;;5286211;28;20046;-77
2022/04/06 06:12:29;;;;;;;24.38;14.75;;;8.80;99.90;;;;;;5285819;27;20027;-79
2022/04/06 06:15:01;;;;;;;22.48;13.93;;;8.90;99.90;;;;;;5285639;27;20065;-79
2022/04/06 06:17:35;;;;;;;21.17;14.43;;;9.40;99.90;;;;;;5269852;28;21509;-78
2022/04/06 06:20:07;;;;;;;22.90;12.60;;;9.50;99.90;;;;;;5286002;28;20012;-75
2022/04/06 06:22:38;;;;;;;18.05;12.77;;;9.80;99.90;;;;;;5267849;27;20114;-74
2022/04/06 06:25:09;;;;;;;19.45;12.35;;;9.90;99.90;;;;;;5284686;28;20024;-77
2022/04/06 06:27:42;;;;;;;20.35;12.25;;;10.20;99.90;;;;;;5267797;28;20501;-79
2022/04/06 06:30:13;;;;;;;19.40;12.60;;;10.50;99.90;;;;;;5267830;28;20015;-78
2022/04/06 06:32:45;;;;;;;21.52;12.68;;;10.80;99.90;;;;;;5283790;28;20024;-76
2022/04/06 06:35:17;;;;;;;22.00;12.73;;;10.90;99.90;;;;;;5287026;27;20110;-78
2022/04/06 06:37:50;;;;;;;19.88;12.80;;;11.00;99.90;;;;;;5267748;28;20356;-80
2022/04/06 06:40:25;;;;;;;19.98;12.65;;;11.20;99.90;;;;;;5285971;28;20020;-79
2022/04/06 06:42:56;;;;;;;20.25;12.35;;;11.30;99.90;;;;;;5286343;27;20032;-79
2022/04/06 06:45:27;;;;;;;17.95;12.77;;;11.50;99.90;;;;;;5285992;28;20080;-73
2022/04/06 06:47:57;;;;;;;18.48;14.02;;;12.00;99.90;;;;;;5286062;28;20050;-72
2022/04/06 06:50:28;;;;;;;22.65;14.85;;;11.90;99.90;;;;;;5286630;27;20727;-74
2022/04/06 06:52:59;;;;;;;27.20;18.40;;;12.40;99.90;;;;;;5267149;28;20097;-75
2022/04/06 06:55:30;;;;;;;26.98;18.00;;;12.80;99.90;;;;;;5285814;28;20150;-77
2022/04/06 06:58:01;;;;;;;24.60;16.38;;;12.90;99.90;;;;;;5267377;28;20085;-77
2022/04/06 07:00:32;;;;;;;19.73;13.18;;;13.00;99.90;;;;;;5287177;27;20023;-73
2022/04/06 07:03:03;;;;;;;16.75;11.25;;;13.00;99.90;;;;;;5266743;28;20024;-77
2022/04/06 07:05:34;;;;;;;16.25;10.80;;;13.20;99.90;;;;;;5285460;28;20034;-73
2022/04/06 07:08:06;;;;;;;11.65;8.48;;;13.50;99.90;;;;;;5264551;28;20062;-73
2022/04/06 07:10:37;;;;;;;7.03;5.55;;;13.80;99.90;;;;;;5283622;28;20023;-73
2022/04/06 07:13:11;;;;;;;9.30;6.35;;;13.60;99.90;;;;;;5262041;28;20028;-71
2022/04/06 07:15:43;;;;;;;8.95;6.18;;;13.90;99.90;;;;;;5283415;28;20050;-73
2022/04/06 07:18:14;;;;;;;7.20;5.97;;;13.90;99.90;;;;;;5284650;27;20027;-76
2022/04/06 07:20:45;;;;;;;8.55;5.55;;;13.50;99.90;;;;;;5281187;28;20015;-71
2022/04/06 07:23:16;;;;;;;7.72;5.75;;;14.20;99.90;;;;;;5284617;27;20020;-78
2022/04/06 07:25:47;;;;;;;10.25;5.95;;;14.00;99.90;;;;;;5284682;28;20024;-73
2022/04/06 07:28:18;;;;;;;6.78;4.55;;;14.20;99.90;;;;;;5282603;28;20479;-82
2022/04/06 07:30:49;;;;;;;7.75;5.47;;;14.30;99.90;;;;;;5286602;27;20059;-72
2022/04/06 07:33:20;;;;;;;7.85;5.63;;;14.70;99.90;;;;;;5284564;28;20475;-72
2022/04/06 07:35:51;;;;;;;7.47;5.30;;;14.90;99.90;;;;;;5284709;28;20032;-72
2022/04/06 07:38:22;;;;;;;6.60;4.85;;;14.80;99.90;;;;;;5284306;28;20024;-70
2022/04/06 07:40:54;;;;;;;9.40;5.20;;;15.00;99.90;;;;;;5284856;27;20563;-80
2022/04/06 07:43:25;;;;;;;8.13;5.82;;;15.10;99.90;;;;;;5283505;27;20028;-78
2022/04/06 07:45:56;;;;;;;6.35;5.40;;;15.60;99.90;;;;;;5285055;27;20051;-71
2022/04/06 07:48:27;;;;;;;6.40;5.07;;;15.50;99.90;;;;;;5283819;28;20040;-81
2022/04/06 07:50:58;;;;;;;7.78;4.95;;;15.60;99.90;;;;;;5284640;28;20032;-70
2022/04/06 07:53:29;;;;;;;10.05;3.80;;;15.70;99.90;;;;;;5265745;28;20120;-72
2022/04/06 07:56:01;;;;;;;5.43;3.40;;;15.90;99.90;;;;;;5284631;28;20138;-77
2022/04/06 07:58:32;;;;;;;3.45;2.83;;;16.00;99.90;;;;;;5265544;28;20548;-75
2022/04/06 08:01:05;;;;;;;4.07;2.33;;;16.10;99.90;;;;;;5284465;28;20509;-77
2022/04/06 08:03:36;;;;;;;3.65;2.90;;;16.30;99.90;;;;;;5283455;28;20027;-76
2022/04/06 08:06:07;;;;;;;4.15;2.75;;;16.50;99.90;;;;;;5265781;28;20122;-77
2022/04/06 08:08:38;;;;;;;3.50;3.00;;;16.60;99.90;;;;;;5284391;28;20036;-76
2022/04/06 08:11:09;;;;;;;3.25;2.80;;;16.70;99.90;;;;;;5284863;27;20019;-71
2022/04/06 08:13:40;;;;;;;3.33;2.35;;;16.80;99.90;;;;;;5284263;28;20539;-71
2022/04/06 08:16:11;;;;;;;3.65;2.45;;;16.50;99.90;;;;;;5265507;28;20039;-72
2022/04/06 08:18:41;;;;;;;4.82;3.53;;;16.80;99.90;;;;;;5284034;28;20027;-71
2022/04/06 08:21:12;;;;;;;4.00;3.22;;;16.90;99.90;;;;;;5265343;28;20023;-71
2022/04/06 08:23:43;;;;;;;3.22;2.50;;;17.00;99.90;;;;;;5280745;28;20019;-79
2022/04/06 08:26:14;;;;;;;4.15;2.70;;;17.10;99.90;;;;;;5284024;28;20023;-75
2022/04/06 08:28:46;;;;;;;4.32;2.70;;;17.20;99.90;;;;;;5265718;28;20055;-70
2022/04/06 08:31:17;;;;;;;5.38;2.95;;;17.10;99.90;;;;;;5268590;28;20046;-71
2022/04/06 08:33:49;;;;;;;3.42;2.45;;;17.50;99.90;;;;;;5286620;28;20031;-72
2022/04/06 08:36:20;;;;;;;3.28;2.70;;;17.60;99.90;;;;;;5266688;28;20008;-72
2022/04/06 08:38:51;;;;;;;3.13;2.55;;;17.80;94.20;;;;;;5284447;28;20100;-73
2022/04/06 08:41:26;;;;;;;4.22;3.00;;;17.70;98.30;;;;;;5283813;28;20528;-72
2022/04/06 08:43:58;;;;;;;7.40;3.00;;;18.00;99.10;;;;;;5284971;28;20039;-72
2022/04/06 08:46:39;;;;;;;4.40;2.88;;;17.80;95.00;;;;;;5283740;28;20042;-73
2022/04/06 08:49:11;;;;;;;4.93;4.00;;;18.10;97.20;;;;;;5281209;28;20043;-72
2022/04/06 08:51:45;;;;;;;6.13;3.13;;;18.00;90.70;;;;;;5283791;28;20039;-76
2022/04/06 08:54:16;;;;;;;3.75;2.17;;;18.30;88.90;;;;;;5280633;28;20122;-71
2022/04/06 08:56:47;;;;;;;11.07;3.03;;;18.20;82.90;;;;;;5283640;27;20515;-74
2022/04/06 08:59:18;;;;;;;3.70;2.72;;;18.20;88.10;;;;;;5287703;28;20031;-79
2022/04/06 09:01:49;;;;;;;4.68;3.00;;;18.30;88.10;;;;;;5290860;27;20079;-79
2022/04/06 09:04:20;;;;;;;2.65;2.28;;;18.50;97.50;;;;;;5287874;28;20463;-78
2022/04/06 09:06:51;;;;;;;140.75;13.73;;;18.40;81.50;;;;;;5287939;27;21087;-79
2022/04/06 09:09:26;;;;;;;20.48;4.93;;;18.40;80.80;;;;;;5287677;28;20035;-79
2022/04/06 09:11:57;;;;;;;27.50;4.25;;;18.40;83.80;;;;;;5287966;28;20509;-71
2022/04/06 09:14:32;;;;;;;5.55;2.42;;;18.70;85.50;;;;;;5287911;27;20047;-80
2022/04/06 09:17:04;;;;;;;4.22;2.67;;;18.90;88.80;;;;;;5284878;27;21463;-72
2022/04/06 09:19:45;;;;;;;3.45;2.33;;;19.00;86.90;;;;;;5287571;28;20035;-78
2022/04/06 09:22:16;;;;;;;3.45;2.58;;;18.90;87.80;;;;;;5285733;27;20154;-78
2022/04/06 09:24:58;;;;;;;2.50;2.30;;;18.80;84.30;;;;;;5287707;28;20069;-76
2022/04/06 09:27:30;;;;;;;4.15;2.55;;;19.00;91.60;;;;;;5287377;27;20046;-72
2022/04/06 09:30:05;;;;;;;3.83;2.25;;;18.80;84.30;;;;;;5286990;28;20108;-72
2022/04/06 09:32:37;;;;;;;3.00;2.30;;;19.10;88.70;;;;;;5287156;28;20047;-72
2022/04/06 09:35:25;;;;;;;4.32;2.42;;;19.10;92.90;;;;;;5287454;28;20145;-72
2022/04/06 09:38:20;;;;;;;3.42;2.65;;;19.00;90.50;;;;;;5287417;28;20035;-71
2022/04/06 09:41:09;;;;;;;5.38;2.88;;;19.10;86.80;;;;;;5287104;28;20020;-75
2022/04/06 09:43:41;;;;;;;3.03;2.30;;;19.20;86.80;;;;;;5284722;28;20043;-75
2022/04/06 09:49:18;;;;;;;3.20;2.22;;;18.60;85.10;;;;;;5288210;28;20046;-71
2022/04/06 09:51:51;;;;;;;3.63;2.07;;;19.30;90.10;;;;;;5292734;28;20485;-71
2022/04/06 09:54:26;;;;;;;4.45;2.15;;;19.50;94.70;;;;;;5292309;28;20517;-71
2022/04/06 09:56:57;;;;;;;4.45;2.80;;;19.10;94.60;;;;;;5292714;27;20020;-71
2022/04/06 09:59:29;;;;;;;6.07;3.20;;;19.60;97.20;;;;;;5291328;28;20032;-75
2022/04/06 10:02:08;;;;;;;4.55;2.80;;;19.50;96.60;;;;;;5289401;28;20027;-78
2022/04/06 10:04:43;;;;;;;4.07;2.87;;;19.30;84.00;;;;;;5291664;28;20031;-71
2022/04/06 10:07:15;;;;;;;4.65;3.35;;;19.40;96.20;;;;;;5289792;28;20036;-75
2022/04/06 10:09:47;;;;;;;4.13;2.80;;;19.50;99.90;;;;;;5290976;28;20019;-74
2022/04/06 10:12:19;;;;;;;4.50;2.58;;;19.70;92.30;;;;;;5291967;28;20024;-73
2022/04/06 10:14:51;;;;;;;5.88;2.90;;;19.80;91.40;;;;;;5291592;28;20043;-72
2022/04/06 10:17:24;;;;;;;8.32;4.57;;;19.50;93.00;;;;;;5292198;28;20032;-73
2022/04/06 10:20:22;;;;;;;5.80;3.50;;;19.60;98.50;;;;;;5291466;28;20016;-73
2022/04/06 10:23:19;;;;;;;4.05;2.65;;;19.90;99.90;;;;;;5284825;28;20839;-72
2022/04/06 10:25:56;;;;;;;3.88;2.63;;;19.50;92.40;;;;;;5291838;28;20455;-71
2022/04/06 10:28:34;;;;;;;3.35;2.17;;;19.80;92.50;;;;;;5291642;28;20035;-72
2022/04/06 10:31:33;;;;;;;5.43;2.13;;;19.70;95.30;;;;;;5291556;28;20498;-72
2022/04/06 10:34:25;;;;;;;3.17;2.35;;;20.00;99.90;;;;;;5288772;28;20031;-73
2022/04/06 10:37:18;;;;;;;3.28;2.05;;;19.90;94.00;;;;;;5291747;28;20110;-72
2022/04/06 10:39:55;;;;;;;3.97;2.53;;;19.90;94.00;;;;;;5291487;28;20026;-72
2022/04/06 10:42:34;;;;;;;2.45;1.90;;;19.90;89.40;;;;;;5264363;28;20545;-73
2022/04/06 10:45:29;;;;;;;3.17;2.50;;;20.30;91.20;;;;;;5282414;28;20023;-72
2022/04/06 10:48:22;;;;;;;3.40;2.25;;;20.10;82.20;;;;;;5261555;28;20040;-72
2022/04/06 10:51:37;;;;;;;3.40;2.63;;;19.70;81.80;;;;;;5291503;28;20027;-72
2022/04/06 10:54:15;;;;;;;2.67;2.15;;;20.60;82.70;;;;;;5288516;28;20096;-71
2022/04/06 10:56:52;;;;;;;5.05;2.75;;;20.60;82.60;;;;;;5278905;28;20101;-71
2022/04/06 10:59:29;;;;;;;3.88;2.20;;;20.70;82.20;;;;;;5290445;28;20062;-72
2022/04/06 11:02:25;;;;;;;3.83;2.33;;;20.70;83.70;;;;;;5291164;28;20027;-72
2022/04/06 11:05:02;;;;;;;2.90;2.35;;;19.70;70.20;;;;;;5290889;28;20032;-71
2022/04/06 11:10:31;;;;;;;4.55;2.53;;;20.60;74.50;;;;;;5276539;28;20041;-72
2022/04/06 11:13:08;;;;;;;6.07;2.80;;;20.80;74.00;;;;;;5290899;28;20027;-72
2022/04/06 11:15:51;;;;;;;3.63;2.50;;;20.50;74.60;;;;;;5290232;28;20113;-75
2022/04/06 11:18:47;;;;;;;3.90;2.60;;;20.50;70.70;;;;;;5274952;28;20483;-72
2022/04/06 11:21:25;;;;;;;7.88;2.67;;;20.50;76.10;;;;;;5290815;28;20122;-73
2022/04/06 11:24:05;;;;;;;4.50;2.53;;;20.90;72.00;;;;;;5290575;28;20023;-78
2022/04/06 11:26:40;;;;;;;4.32;2.53;;;20.60;70.90;;;;;;5290741;28;20011;-79
2022/04/06 11:29:16;;;;;;;4.07;3.20;;;20.70;70.70;;;;;;5290173;28;20028;-79
2022/04/06 11:32:04;;;;;;;4.28;2.60;;;20.50;72.00;;;;;;5290558;28;20022;-79
2022/04/06 11:34:40;;;;;;;4.43;2.53;;;20.60;71.50;;;;;;5290573;28;20161;-78
2022/04/06 11:37:14;;;;;;;4.25;2.53;;;20.60;71.60;;;;;;5290471;28;20028;-78
2022/04/06 11:39:50;;;;;;;4.50;2.90;;;21.00;71.80;;;;;;5290234;28;20116;-78
2022/04/06 11:42:23;;;;;;;4.47;2.80;;;20.90;72.90;;;;;;5290483;28;20043;-76
2022/04/06 11:44:58;;;;;;;4.80;2.70;;;20.60;72.40;;;;;;5290194;28;20030;-78
2022/04/06 11:47:45;;;;;;;4.97;3.25;;;21.20;74.00;;;;;;5290366;28;20371;-78
2022/04/06 11:50:18;;;;;;;6.97;3.42;;;20.60;73.40;;;;;;5274068;28;20344;-78
2022/04/06 11:52:50;;;;;;;5.18;3.13;;;20.50;70.30;;;;;;5283347;28;20031;-72
2022/04/06 11:55:50;;;;;;;6.78;3.30;;;20.20;67.60;;;;;;5289397;28;20415;-77
2022/04/06 11:58:47;;;;;;;4.30;3.10;;;20.70;71.50;;;;;;5274823;28;20446;-78
2022/04/06 12:01:28;;;;;;;2.38;2.00;;;20.70;71.40;;;;;;5269100;28;20028;-76
2022/04/06 12:04:12;;;;;;;4.65;2.92;;;20.80;70.10;;;;;;5288036;28;20024;-78
2022/04/06 12:06:49;;;;;;;5.20;2.83;;;20.90;72.10;;;;;;5289935;28;20024;-72
2022/04/06 12:09:25;;;;;;;3.38;2.45;;;20.90;70.30;;;;;;5278636;28;20027;-72
2022/04/06 12:11:59;;;;;;;5.55;3.80;;;21.10;68.00;;;;;;5286206;28;20502;-72
2022/04/06 12:14:37;;;;;;;4.50;3.03;;;21.00;69.80;;;;;;5273923;28;20039;-72
2022/04/06 12:17:13;;;;;;;3.35;2.40;;;20.80;69.40;;;;;;5289760;28;20101;-72
2022/04/06 12:19:48;;;;;;;3.08;2.75;;;20.80;66.20;;;;;;5289614;28;20020;-72
2022/04/06 12:22:35;;;;;;;4.18;2.83;;;21.20;68.90;;;;;;5289524;28;20022;-72
2022/04/06 12:25:31;;;;;;;4.35;2.58;;;21.00;66.80;;;;;;5280073;28;20136;-72
2022/04/06 12:28:23;;;;;;;4.65;2.67;;;21.00;64.60;;;;;;5286811;28;20020;-74
2022/04/06 12:31:11;;;;;;;3.38;2.70;;;21.20;68.70;;;;;;5279662;28;20089;-78
2022/04/06 12:33:54;;;;;;;3.80;2.17;;;21.00;69.10;;;;;;5289535;28;20028;-72
2022/04/06 12:36:30;;;;;;;4.95;2.63;;;21.10;68.80;;;;;;5273584;28;20023;-72
2022/04/06 12:39:14;;;;;;;4.07;2.33;;;20.60;66.90;;;;;;5289883;28;20027;-72
2022/04/06 12:42:13;;;;;;;4.25;2.33;;;20.40;60.50;;;;;;5289881;28;20012;-76
2022/04/06 12:45:02;;;;;;;2.22;2.03;;;21.10;62.20;;;;;;5289874;28;20080;-77
2022/04/06 12:47:36;;;;;;;5.60;2.35;;;20.20;56.20;;;;;;5271672;28;20507;-76
2022/04/06 12:50:21;;;;;;;3.60;2.70;;;20.70;58.20;;;;;;5289378;28;20019;-76
2022/04/06 12:53:12;;;;;;;6.18;2.40;;;21.40;61.60;;;;;;5282582;28;20019;-78
2022/04/06 12:55:47;;;;;;;3.67;2.65;;;20.50;56.90;;;;;;5289877;28;20352;-78
2022/04/06 12:58:23;;;;;;;5.05;2.10;;;21.40;57.30;;;;;;5271566;28;20067;-77
2022/04/06 13:01:00;;;;;;;3.53;2.45;;;21.00;55.10;;;;;;5289855;28;20024;-72
2022/04/06 13:03:35;;;;;;;4.22;2.63;;;21.20;57.20;;;;;;5289402;28;20019;-75
2022/04/06 13:06:13;;;;;;;4.65;2.00;;;20.70;56.30;;;;;;5289656;28;20477;-73
2022/04/06 13:08:55;;;;;;;3.53;2.58;;;20.80;56.00;;;;;;5289737;28;20019;-73
2022/04/06 13:11:30;;;;;;;4.82;3.08;;;20.70;55.20;;;;;;5289828;28;20442;-73
2022/04/06 13:14:06;;;;;;;3.08;2.38;;;21.00;57.20;;;;;;5287465;28;20038;-74
2022/04/06 13:16:44;;;;;;;4.55;2.55;;;20.60;57.90;;;;;;5289623;28;20031;-73
2022/04/06 13:19:17;;;;;;;3.70;2.50;;;21.10;56.70;;;;;;5289836;28;20051;-78
2022/04/06 13:21:59;;;;;;;4.30;2.63;;;20.50;55.90;;;;;;5289796;28;20057;-72
2022/04/06 13:24:33;;;;;;;3.80;2.63;;;20.70;52.90;;;;;;5289719;28;20020;-72
2022/04/06 13:27:11;;;;;;;2.90;2.28;;;20.70;55.00;;;;;;5289514;28;20497;-73